sensor_id;sensor_type;location;lat;lon;timestamp;pressure;altitude;pressure_sealevel;temperature;humidity
38716;BME280;24833;49.324;8.694;2023-12-04T00:01:17;99944.53;;;-2.83;90.69
38716;BME280;24833;49.324;8.694;2023-12-04T00:03:44;99942.75;;;-2.83;90.72
38716;BME280;24833;49.324;8.694;2023-12-04T00:06:12;99930.63;;;-2.84;90.55
38716;BME280;24833;49.324;8.694;2023-12-04T00:08:40;99918.41;;;-2.83;90.71
38716;BME280;24833;49.324;8.694;2023-12-04T00:11:07;99921.13;;;-2.85;90.50
38716;BME280;24833;49.324;8.694;2023-12-04T00:13:34;99908.19;;;-2.86;90.47
38716;BME280;24833;49.324;8.694;2023-12-04T00:16:02;99907.22;;;-2.85;90.21
38716;BME280;24833;49.324;8.694;2023-12-04T00:18:29;99903.91;;;-2.87;90.34
38716;BME280;24833;49.324;8.694;2023-12-04T00:20:57;99883.00;;;-2.87;90.39
38716;BME280;24833;49.324;8.694;2023-12-04T00:23:24;99884.75;;;-2.88;90.16
38716;BME280;24833;49.324;8.694;2023-12-04T00:25:51;99896.97;;;-2.88;90.05
38716;BME280;24833;49.324;8.694;2023-12-04T00:28:18;99888.22;;;-2.87;90.00
38716;BME280;24833;49.324;8.694;2023-12-04T00:30:45;99886.53;;;-2.88;90.06
38716;BME280;24833;49.324;8.694;2023-12-04T00:33:12;99879.66;;;-2.89;89.97
38716;BME280;24833;49.324;8.694;2023-12-04T00:35:39;99887.38;;;-2.88;89.86
38716;BME280;24833;49.324;8.694;2023-12-04T00:38:06;99888.22;;;-2.87;89.74
38716;BME280;24833;49.324;8.694;2023-12-04T00:40:33;99879.44;;;-2.86;89.87
38716;BME280;24833;49.324;8.694;2023-12-04T00:43:00;99877.78;;;-2.87;89.67
38716;BME280;24833;49.324;8.694;2023-12-04T00:45:27;99884.66;;;-2.86;89.65
38716;BME280;24833;49.324;8.694;2023-12-04T00:47:55;99878.63;;;-2.87;89.71
38716;BME280;24833;49.324;8.694;2023-12-04T00:50:22;99878.63;;;-2.87;89.43
38716;BME280;24833;49.324;8.694;2023-12-04T00:52:49;99878.63;;;-2.87;89.45
38716;BME280;24833;49.324;8.694;2023-12-04T00:55:16;99871.63;;;-2.86;89.38
38716;BME280;24833;49.324;8.694;2023-12-04T00:57:43;99874.22;;;-2.86;89.31
38716;BME280;24833;49.324;8.694;2023-12-04T01:00:11;99869.84;;;-2.86;89.29
38716;BME280;24833;49.324;8.694;2023-12-04T01:02:38;99873.38;;;-2.87;89.24
38716;BME280;24833;49.324;8.694;2023-12-04T01:05:05;99862.13;;;-2.87;89.02
38716;BME280;24833;49.324;8.694;2023-12-04T01:07:33;99868.16;;;-2.87;88.95
38716;BME280;24833;49.324;8.694;2023-12-04T01:10:00;99873.47;;;-2.88;88.90
38716;BME280;24833;49.324;8.694;2023-12-04T01:12:27;99855.19;;;-2.88;88.68
38716;BME280;24833;49.324;8.694;2023-12-04T01:14:54;99863.84;;;-2.88;88.80
38716;BME280;24833;49.324;8.694;2023-12-04T01:17:21;99849.97;;;-2.88;88.77
38716;BME280;24833;49.324;8.694;2023-12-04T01:19:49;99849.13;;;-2.89;88.56
38716;BME280;24833;49.324;8.694;2023-12-04T01:22:16;99840.47;;;-2.89;88.57
38716;BME280;24833;49.324;8.694;2023-12-04T01:24:43;99843.06;;;-2.89;88.57
38716;BME280;24833;49.324;8.694;2023-12-04T01:27:10;99838.69;;;-2.89;88.35
38716;BME280;24833;49.324;8.694;2023-12-04T01:29:38;99837.03;;;-2.90;88.25
38716;BME280;24833;49.324;8.694;2023-12-04T01:32:05;99824.78;;;-2.89;88.38
38716;BME280;24833;49.324;8.694;2023-12-04T01:34:32;99827.41;;;-2.89;88.15
38716;BME280;24833;49.324;8.694;2023-12-04T01:36:59;99822.19;;;-2.89;88.14
38716;BME280;24833;49.324;8.694;2023-12-04T01:39:26;99834.28;;;-2.88;88.16
38716;BME280;24833;49.324;8.694;2023-12-04T01:41:53;99827.28;;;-2.88;87.95
38716;BME280;24833;49.324;8.694;2023-12-04T01:44:20;99832.44;;;-2.86;87.92
38716;BME280;24833;49.324;8.694;2023-12-04T01:46:49;99815.09;;;-2.87;87.85
38716;BME280;24833;49.324;8.694;2023-12-04T01:49:16;99815.94;;;-2.87;87.91
38716;BME280;24833;49.324;8.694;2023-12-04T01:51:45;99814.22;;;-2.88;87.79
38716;BME280;24833;49.324;8.694;2023-12-04T01:54:12;99814.34;;;-2.89;87.52
38716;BME280;24833;49.324;8.694;2023-12-04T01:56:40;99811.75;;;-2.89;87.78
38716;BME280;24833;49.324;8.694;2023-12-04T01:59:07;99803.06;;;-2.90;87.62
38716;BME280;24833;49.324;8.694;2023-12-04T02:01:34;99805.81;;;-2.91;87.63
38716;BME280;24833;49.324;8.694;2023-12-04T02:04:03;99811.03;;;-2.91;87.48
38716;BME280;24833;49.324;8.694;2023-12-04T02:06:31;99803.31;;;-2.93;87.53
38716;BME280;24833;49.324;8.694;2023-12-04T02:08:59;99806.75;;;-2.92;87.59
38716;BME280;24833;49.324;8.694;2023-12-04T02:11:26;99799.84;;;-2.93;87.36
38716;BME280;24833;49.324;8.694;2023-12-04T02:13:53;99795.56;;;-2.94;87.32
38716;BME280;24833;49.324;8.694;2023-12-04T02:16:23;99799.09;;;-2.95;87.41
38716;BME280;24833;49.324;8.694;2023-12-04T02:18:53;99784.38;;;-2.96;87.24
38716;BME280;24833;49.324;8.694;2023-12-04T02:21:21;99778.44;;;-2.98;87.52
38716;BME280;24833;49.324;8.694;2023-12-04T02:23:51;99774.19;;;-2.99;87.32
38716;BME280;24833;49.324;8.694;2023-12-04T02:26:26;99778.56;;;-3.00;87.36
38716;BME280;24833;49.324;8.694;2023-12-04T02:28:58;99765.59;;;-3.02;87.27
38716;BME280;24833;49.324;8.694;2023-12-04T02:31:29;99765.59;;;-3.02;86.98
38716;BME280;24833;49.324;8.694;2023-12-04T02:33:59;99770.81;;;-3.02;87.25
38716;BME280;24833;49.324;8.694;2023-12-04T02:36:27;99768.44;;;-3.05;87.20
38716;BME280;24833;49.324;8.694;2023-12-04T02:38:56;99762.50;;;-3.07;87.06
38716;BME280;24833;49.324;8.694;2023-12-04T02:41:23;99763.41;;;-3.08;87.09
38716;BME280;24833;49.324;8.694;2023-12-04T02:43:51;99761.75;;;-3.09;86.94
38716;BME280;24833;49.324;8.694;2023-12-04T02:46:18;99758.44;;;-3.11;87.03
38716;BME280;24833;49.324;8.694;2023-12-04T02:48:45;99744.53;;;-3.11;86.96
38716;BME280;24833;49.324;8.694;2023-12-04T02:51:12;99747.16;;;-3.11;86.99
38716;BME280;24833;49.324;8.694;2023-12-04T02:53:39;99728.03;;;-3.12;87.22
38716;BME280;24833;49.324;8.694;2023-12-04T02:56:07;99724.59;;;-3.12;87.22
38716;BME280;24833;49.324;8.694;2023-12-04T02:58:34;99722.81;;;-3.12;87.23
38716;BME280;24833;49.324;8.694;2023-12-04T03:01:01;99722.81;;;-3.12;87.08
38716;BME280;24833;49.324;8.694;2023-12-04T03:03:28;99717.59;;;-3.12;87.21
38716;BME280;24833;49.324;8.694;2023-12-04T03:05:55;99702.88;;;-3.13;87.03
38716;BME280;24833;49.324;8.694;2023-12-04T03:08:23;99698.63;;;-3.14;86.99
38716;BME280;24833;49.324;8.694;2023-12-04T03:10:50;99694.31;;;-3.15;87.16
38716;BME280;24833;49.324;8.694;2023-12-04T03:13:17;99697.88;;;-3.16;87.18
38716;BME280;24833;49.324;8.694;2023-12-04T03:15:44;99688.38;;;-3.17;86.98
38716;BME280;24833;49.324;8.694;2023-12-04T03:18:11;99689.31;;;-3.18;87.15
38716;BME280;24833;49.324;8.694;2023-12-04T03:20:39;99681.59;;;-3.19;87.04
38716;BME280;24833;49.324;8.694;2023-12-04T03:23:06;99684.34;;;-3.21;87.31
38716;BME280;24833;49.324;8.694;2023-12-04T03:25:33;99675.75;;;-3.23;87.04
38716;BME280;24833;49.324;8.694;2023-12-04T03:28:00;99667.09;;;-3.23;87.31
38716;BME280;24833;49.324;8.694;2023-12-04T03:30:28;99666.28;;;-3.24;87.21
38716;BME280;24833;49.324;8.694;2023-12-04T03:32:55;99659.97;;;-3.21;87.47
38716;BME280;24833;49.324;8.694;2023-12-04T03:35:22;99652.28;;;-3.23;87.23
38716;BME280;24833;49.324;8.694;2023-12-04T03:37:49;99653.00;;;-3.21;87.27
38716;BME280;24833;49.324;8.694;2023-12-04T03:40:19;99654.69;;;-3.20;87.40
38716;BME280;24833;49.324;8.694;2023-12-04T03:42:46;99650.41;;;-3.21;87.50
38716;BME280;24833;49.324;8.694;2023-12-04T03:45:13;99653.72;;;-3.19;87.54
38716;BME280;24833;49.324;8.694;2023-12-04T03:47:40;99640.69;;;-3.19;87.47
38716;BME280;24833;49.324;8.694;2023-12-04T03:50:08;99635.44;;;-3.19;87.42
38716;BME280;24833;49.324;8.694;2023-12-04T03:52:35;99639.84;;;-3.19;87.47
38716;BME280;24833;49.324;8.694;2023-12-04T03:55:02;99636.41;;;-3.20;87.33
38716;BME280;24833;49.324;8.694;2023-12-04T03:57:30;99639.97;;;-3.21;87.50
38716;BME280;24833;49.324;8.694;2023-12-04T03:59:57;99636.41;;;-3.20;87.45
38716;BME280;24833;49.324;8.694;2023-12-04T04:02:24;99628.56;;;-3.20;87.39
38716;BME280;24833;49.324;8.694;2023-12-04T04:04:51;99636.28;;;-3.18;87.52
38716;BME280;24833;49.324;8.694;2023-12-04T04:07:19;99639.59;;;-3.16;87.35
38716;BME280;24833;49.324;8.694;2023-12-04T04:09:46;99637.75;;;-3.14;87.64
38716;BME280;24833;49.324;8.694;2023-12-04T04:12:13;99642.84;;;-3.13;87.52
38716;BME280;24833;49.324;8.694;2023-12-04T04:14:40;99637.50;;;-3.11;87.37
38716;BME280;24833;49.324;8.694;2023-12-04T04:17:07;99641.66;;;-3.09;87.62
38716;BME280;24833;49.324;8.694;2023-12-04T04:19:34;99638.00;;;-3.06;87.41
38716;BME280;24833;49.324;8.694;2023-12-04T04:22:02;99631.72;;;-3.04;87.32
38716;BME280;24833;49.324;8.694;2023-12-04T04:24:29;99641.22;;;-3.03;87.28
38716;BME280;24833;49.324;8.694;2023-12-04T04:26:56;99637.56;;;-3.00;87.01
38716;BME280;24833;49.324;8.694;2023-12-04T04:29:23;99640.06;;;-2.98;87.35
38716;BME280;24833;49.324;8.694;2023-12-04T04:31:50;99636.47;;;-2.97;87.08
38716;BME280;24833;49.324;8.694;2023-12-04T04:34:19;99639.81;;;-2.95;87.16
38716;BME280;24833;49.324;8.694;2023-12-04T04:36:46;99643.16;;;-2.93;87.10
38716;BME280;24833;49.324;8.694;2023-12-04T04:39:14;99630.81;;;-2.91;86.86
38716;BME280;24833;49.324;8.694;2023-12-04T04:41:41;99646.25;;;-2.88;87.00
38716;BME280;24833;49.324;8.694;2023-12-04T04:44:08;99648.66;;;-2.85;86.57
38716;BME280;24833;49.324;8.694;2023-12-04T04:46:35;99642.47;;;-2.84;86.70
38716;BME280;24833;49.324;8.694;2023-12-04T04:49:02;99644.97;;;-2.83;86.60
38716;BME280;24833;49.324;8.694;2023-12-04T04:51:34;99642.22;;;-2.81;86.65
38716;BME280;24833;49.324;8.694;2023-12-04T04:54:02;99636.91;;;-2.80;86.49
38716;BME280;24833;49.324;8.694;2023-12-04T04:56:29;99632.41;;;-2.78;86.19
38716;BME280;24833;49.324;8.694;2023-12-04T04:58:57;99618.50;;;-2.78;86.33
38716;BME280;24833;49.324;8.694;2023-12-04T05:01:24;99628.00;;;-2.77;86.16
38716;BME280;24833;49.324;8.694;2023-12-04T05:03:51;99627.06;;;-2.76;86.04
38716;BME280;24833;49.324;8.694;2023-12-04T05:06:18;99636.56;;;-2.75;85.88
38716;BME280;24833;49.324;8.694;2023-12-04T05:08:45;99635.63;;;-2.74;85.76
38716;BME280;24833;49.324;8.694;2023-12-04T05:11:14;99623.41;;;-2.73;85.77
38716;BME280;24833;49.324;8.694;2023-12-04T05:13:42;99623.16;;;-2.70;85.49
38716;BME280;24833;49.324;8.694;2023-12-04T05:16:09;99611.63;;;-2.68;85.53
38716;BME280;24833;49.324;8.694;2023-12-04T05:18:38;99616.75;;;-2.66;85.44
38716;BME280;24833;49.324;8.694;2023-12-04T05:21:12;99600.97;;;-2.65;85.32
38716;BME280;24833;49.324;8.694;2023-12-04T05:23:39;99606.06;;;-2.63;85.00
38716;BME280;24833;49.324;8.694;2023-12-04T05:26:07;99604.28;;;-2.63;84.75
38716;BME280;24833;49.324;8.694;2023-12-04T05:28:35;99593.84;;;-2.63;85.01
38716;BME280;24833;49.324;8.694;2023-12-04T05:31:02;99588.59;;;-2.63;84.67
38716;BME280;24833;49.324;8.694;2023-12-04T05:33:29;99615.56;;;-2.62;84.60
38716;BME280;24833;49.324;8.694;2023-12-04T05:35:56;99605.94;;;-2.62;84.50
38716;BME280;24833;49.324;8.694;2023-12-04T05:38:23;99590.28;;;-2.62;84.50
38716;BME280;24833;49.324;8.694;2023-12-04T05:40:50;99587.66;;;-2.62;84.20
38716;BME280;24833;49.324;8.694;2023-12-04T05:43:17;99580.66;;;-2.61;84.09
38716;BME280;24833;49.324;8.694;2023-12-04T05:45:45;99572.81;;;-2.61;84.13
38716;BME280;24833;49.324;8.694;2023-12-04T05:48:15;99578.78;;;-2.59;84.03
38716;BME280;24833;49.324;8.694;2023-12-04T05:50:42;99577.69;;;-2.57;83.95
38716;BME280;24833;49.324;8.694;2023-12-04T05:53:09;99593.38;;;-2.57;83.87
38716;BME280;24833;49.324;8.694;2023-12-04T05:55:36;99567.03;;;-2.54;83.86
38716;BME280;24833;49.324;8.694;2023-12-04T05:58:03;99603.34;;;-2.51;83.56
38716;BME280;24833;49.324;8.694;2023-12-04T06:00:30;99597.88;;;-2.48;83.42
38716;BME280;24833;49.324;8.694;2023-12-04T06:02:57;99610.84;;;-2.46;83.38
38716;BME280;24833;49.324;8.694;2023-12-04T06:05:24;99623.81;;;-2.44;83.17
38716;BME280;24833;49.324;8.694;2023-12-04T06:07:51;99630.69;;;-2.43;83.09
38716;BME280;24833;49.324;8.694;2023-12-04T06:10:18;99626.28;;;-2.43;83.05
38716;BME280;24833;49.324;8.694;2023-12-04T06:12:45;99641.16;;;-2.43;83.12
38716;BME280;24833;49.324;8.694;2023-12-04T06:15:12;99630.00;;;-2.45;82.94
38716;BME280;24833;49.324;8.694;2023-12-04T06:17:39;99633.56;;;-2.47;82.81
38716;BME280;24833;49.324;8.694;2023-12-04T06:20:07;99626.06;;;-2.51;82.73
38716;BME280;24833;49.324;8.694;2023-12-04T06:22:35;99615.81;;;-2.54;82.95
38716;BME280;24833;49.324;8.694;2023-12-04T06:25:03;99601.22;;;-2.57;82.60
38716;BME280;24833;49.324;8.694;2023-12-04T06:27:30;99591.84;;;-2.59;82.42
38716;BME280;24833;49.324;8.694;2023-12-04T06:29:57;99584.13;;;-2.61;82.57
38716;BME280;24833;49.324;8.694;2023-12-04T06:32:25;99584.34;;;-2.64;82.43
38716;BME280;24833;49.324;8.694;2023-12-04T06:34:52;99578.41;;;-2.66;82.41
38716;BME280;24833;49.324;8.694;2023-12-04T06:37:21;99578.63;;;-2.69;82.38
38716;BME280;24833;49.324;8.694;2023-12-04T06:39:48;99548.34;;;-2.71;82.40
38716;BME280;24833;49.324;8.694;2023-12-04T06:42:16;99538.97;;;-2.74;82.38
38716;BME280;24833;49.324;8.694;2023-12-04T06:44:44;99530.41;;;-2.76;82.52
38716;BME280;24833;49.324;8.694;2023-12-04T06:47:12;99522.69;;;-2.78;82.58
38716;BME280;24833;49.324;8.694;2023-12-04T06:49:44;99533.97;;;-2.77;82.48
38716;BME280;24833;49.324;8.694;2023-12-04T06:52:11;99519.25;;;-2.78;82.49
38716;BME280;24833;49.324;8.694;2023-12-04T06:54:38;99507.97;;;-2.79;82.48
38716;BME280;24833;49.324;8.694;2023-12-04T06:57:05;99490.50;;;-2.78;82.55
38716;BME280;24833;49.324;8.694;2023-12-04T06:59:32;99494.78;;;-2.77;82.63
38716;BME280;24833;49.324;8.694;2023-12-04T07:01:59;99486.94;;;-2.77;82.45
38716;BME280;24833;49.324;8.694;2023-12-04T07:04:26;99483.38;;;-2.76;82.55
38716;BME280;24833;49.324;8.694;2023-12-04T07:06:53;99481.50;;;-2.74;82.82
38716;BME280;24833;49.324;8.694;2023-12-04T07:09:21;99489.22;;;-2.72;82.69
38716;BME280;24833;49.324;8.694;2023-12-04T07:11:48;99483.88;;;-2.71;82.68
38716;BME280;24833;49.324;8.694;2023-12-04T07:14:15;99483.75;;;-2.69;82.77
38716;BME280;24833;49.324;8.694;2023-12-04T07:16:42;99446.94;;;-2.66;82.67
38716;BME280;24833;49.324;8.694;2023-12-04T07:19:10;99469.50;;;-2.65;82.49
38716;BME280;24833;49.324;8.694;2023-12-04T07:21:38;99462.38;;;-2.63;82.51
38716;BME280;24833;49.324;8.694;2023-12-04T07:24:06;99459.63;;;-2.62;82.33
38716;BME280;24833;49.324;8.694;2023-12-04T07:26:35;99445.63;;;-2.61;82.37
38716;BME280;24833;49.324;8.694;2023-12-04T07:29:02;99473.41;;;-2.60;82.39
38716;BME280;24833;49.324;8.694;2023-12-04T07:31:30;99435.75;;;-2.57;82.35
38716;BME280;24833;49.324;8.694;2023-12-04T07:33:57;99459.16;;;-2.56;82.30
38716;BME280;24833;49.324;8.694;2023-12-04T07:36:28;99462.50;;;-2.54;82.25
38716;BME280;24833;49.324;8.694;2023-12-04T07:38:55;99457.13;;;-2.52;82.20
38716;BME280;24833;49.324;8.694;2023-12-04T07:41:22;99437.19;;;-2.53;81.91
38716;BME280;24833;49.324;8.694;2023-12-04T07:43:49;99468.41;;;-2.52;82.02
38716;BME280;24833;49.324;8.694;2023-12-04T07:46:16;99457.00;;;-2.51;81.95
38716;BME280;24833;49.324;8.694;2023-12-04T07:48:43;99464.84;;;-2.51;81.72
38716;BME280;24833;49.324;8.694;2023-12-04T07:51:11;99455.09;;;-2.49;81.65
38716;BME280;24833;49.324;8.694;2023-12-04T07:53:38;99462.84;;;-2.47;81.70
38716;BME280;24833;49.324;8.694;2023-12-04T07:56:05;99480.19;;;-2.46;81.49
38716;BME280;24833;49.324;8.694;2023-12-04T07:58:33;99465.19;;;-2.44;81.57
38716;BME280;24833;49.324;8.694;2023-12-04T08:01:00;99462.47;;;-2.42;81.41
38716;BME280;24833;49.324;8.694;2023-12-04T08:03:27;99465.81;;;-2.40;81.52
38716;BME280;24833;49.324;8.694;2023-12-04T08:05:54;99450.81;;;-2.38;81.42
38716;BME280;24833;49.324;8.694;2023-12-04T08:08:22;99464.59;;;-2.36;81.27
38716;BME280;24833;49.324;8.694;2023-12-04T08:10:49;99456.53;;;-2.33;81.23
38716;BME280;24833;49.324;8.694;2023-12-04T08:13:16;99458.88;;;-2.30;81.04
38716;BME280;24833;49.324;8.694;2023-12-04T08:15:44;99457.94;;;-2.29;81.08
38716;BME280;24833;49.324;8.694;2023-12-04T08:18:11;99457.78;;;-2.28;81.17
38716;BME280;24833;49.324;8.694;2023-12-04T08:20:38;99446.28;;;-2.25;80.84
38716;BME280;24833;49.324;8.694;2023-12-04T08:23:08;99439.97;;;-2.23;80.59
38716;BME280;24833;49.324;8.694;2023-12-04T08:25:35;99450.28;;;-2.21;80.88
38716;BME280;24833;49.324;8.694;2023-12-04T08:28:06;99450.19;;;-2.20;80.57
38716;BME280;24833;49.324;8.694;2023-12-04T08:30:35;99442.22;;;-2.18;80.43
38716;BME280;24833;49.324;8.694;2023-12-04T08:33:02;99447.31;;;-2.16;80.35
38716;BME280;24833;49.324;8.694;2023-12-04T08:35:30;99436.75;;;-2.15;80.10
38716;BME280;24833;49.324;8.694;2023-12-04T08:37:57;99427.97;;;-2.14;80.27
38716;BME280;24833;49.324;8.694;2023-12-04T08:40:24;99435.91;;;-2.15;80.03
38716;BME280;24833;49.324;8.694;2023-12-04T08:42:51;99420.13;;;-2.14;80.04
38716;BME280;24833;49.324;8.694;2023-12-04T08:45:19;99426.28;;;-2.15;79.99
38716;BME280;24833;49.324;8.694;2023-12-04T08:47:46;99435.81;;;-2.14;80.21
38716;BME280;24833;49.324;8.694;2023-12-04T08:50:13;99427.97;;;-2.14;79.96
38716;BME280;24833;49.324;8.694;2023-12-04T08:52:40;99426.28;;;-2.15;79.52
38716;BME280;24833;49.324;8.694;2023-12-04T08:55:10;99423.66;;;-2.15;79.91
38716;BME280;24833;49.324;8.694;2023-12-04T08:57:37;99421.03;;;-2.15;79.85
38716;BME280;24833;49.324;8.694;2023-12-04T09:00:05;99406.19;;;-2.14;79.72
38716;BME280;24833;49.324;8.694;2023-12-04T09:02:35;99392.19;;;-2.13;79.71
38716;BME280;24833;49.324;8.694;2023-12-04T09:05:09;99397.41;;;-2.13;79.76
38716;BME280;24833;49.324;8.694;2023-12-04T09:07:37;99407.75;;;-2.12;79.76
38716;BME280;24833;49.324;8.694;2023-12-04T09:10:07;99397.28;;;-2.12;79.57
38716;BME280;24833;49.324;8.694;2023-12-04T09:12:46;99400.72;;;-2.11;79.57
38716;BME280;24833;49.324;8.694;2023-12-04T09:15:13;99421.50;;;-2.10;79.75
38716;BME280;24833;49.324;8.694;2023-12-04T09:17:40;99436.25;;;-2.09;79.66
38716;BME280;24833;49.324;8.694;2023-12-04T09:20:08;99428.41;;;-2.09;79.66
38716;BME280;24833;49.324;8.694;2023-12-04T09:22:36;99422.94;;;-2.06;79.54
38716;BME280;24833;49.324;8.694;2023-12-04T09:25:10;99416.75;;;-2.05;79.57
38716;BME280;24833;49.324;8.694;2023-12-04T09:27:37;99418.41;;;-2.04;79.41
38716;BME280;24833;49.324;8.694;2023-12-04T09:30:05;99426.00;;;-2.01;79.49
38716;BME280;24833;49.324;8.694;2023-12-04T09:32:32;99418.16;;;-2.01;79.38
38716;BME280;24833;49.324;8.694;2023-12-04T09:34:59;99426.72;;;-1.99;79.35
38716;BME280;24833;49.324;8.694;2023-12-04T09:37:26;99427.41;;;-1.97;79.41
38716;BME280;24833;49.324;8.694;2023-12-04T09:39:53;99409.81;;;-1.95;79.26
38716;BME280;24833;49.324;8.694;2023-12-04T09:42:21;99394.09;;;-1.95;79.36
38716;BME280;24833;49.324;8.694;2023-12-04T09:44:48;99392.22;;;-1.93;79.25
38716;BME280;24833;49.324;8.694;2023-12-04T09:47:21;99417.41;;;-1.92;79.37
38716;BME280;24833;49.324;8.694;2023-12-04T09:49:52;99429.53;;;-1.90;79.17
38716;BME280;24833;49.324;8.694;2023-12-04T09:52:20;99398.00;;;-1.89;79.19
38716;BME280;24833;49.324;8.694;2023-12-04T09:54:47;99421.41;;;-1.87;79.30
38716;BME280;24833;49.324;8.694;2023-12-04T09:57:15;99389.19;;;-1.88;79.20
38716;BME280;24833;49.324;8.694;2023-12-04T09:59:45;99394.34;;;-1.86;79.29
38716;BME280;24833;49.324;8.694;2023-12-04T10:02:12;99390.75;;;-1.85;79.42
38716;BME280;24833;49.324;8.694;2023-12-04T10:04:41;99408.09;;;-1.84;79.41
38716;BME280;24833;49.324;8.694;2023-12-04T10:07:09;99404.66;;;-1.85;79.25
38716;BME280;24833;49.324;8.694;2023-12-04T10:09:36;99410.59;;;-1.83;79.30
38716;BME280;24833;49.324;8.694;2023-12-04T10:12:03;99421.88;;;-1.82;79.21
38716;BME280;24833;49.324;8.694;2023-12-04T10:14:32;99434.00;;;-1.81;79.24
38716;BME280;24833;49.324;8.694;2023-12-04T10:16:59;99442.56;;;-1.79;78.98
38716;BME280;24833;49.324;8.694;2023-12-04T10:19:40;99435.56;;;-1.79;79.11
38716;BME280;24833;49.324;8.694;2023-12-04T10:22:08;99417.13;;;-1.77;78.94
38716;BME280;24833;49.324;8.694;2023-12-04T10:24:39;99418.63;;;-1.75;79.24
38716;BME280;24833;49.324;8.694;2023-12-04T10:27:08;99398.53;;;-1.74;79.23
38716;BME280;24833;49.324;8.694;2023-12-04T10:29:48;99402.69;;;-1.72;79.22
38716;BME280;24833;49.324;8.694;2023-12-04T10:32:20;99414.81;;;-1.71;79.15
38716;BME280;24833;49.324;8.694;2023-12-04T10:34:48;99377.22;;;-1.70;79.33
38716;BME280;24833;49.324;8.694;2023-12-04T10:37:16;99408.50;;;-1.68;79.35
38716;BME280;24833;49.324;8.694;2023-12-04T10:39:49;99395.16;;;-1.65;79.22
38716;BME280;24833;49.324;8.694;2023-12-04T10:42:28;99388.16;;;-1.65;79.42
38716;BME280;24833;49.324;8.694;2023-12-04T10:44:57;99389.81;;;-1.63;79.48
38716;BME280;24833;49.324;8.694;2023-12-04T10:47:24;99392.41;;;-1.63;79.49
38716;BME280;24833;49.324;8.694;2023-12-04T10:49:52;99383.59;;;-1.62;79.49
38716;BME280;24833;49.324;8.694;2023-12-04T10:52:20;99372.19;;;-1.61;79.59
38716;BME280;24833;49.324;8.694;2023-12-04T10:54:48;99370.53;;;-1.62;79.59
38716;BME280;24833;49.324;8.694;2023-12-04T10:57:37;99383.59;;;-1.62;79.58
38716;BME280;24833;49.324;8.694;2023-12-04T11:00:06;99380.16;;;-1.63;79.64
38716;BME280;24833;49.324;8.694;2023-12-04T11:02:40;99393.25;;;-1.63;79.80
38716;BME280;24833;49.324;8.694;2023-12-04T11:05:16;99393.38;;;-1.65;79.94
38716;BME280;24833;49.324;8.694;2023-12-04T11:07:56;99379.72;;;-1.68;80.27
38716;BME280;24833;49.324;8.694;2023-12-04T11:10:59;99374.88;;;-1.73;80.56
38716;BME280;24833;49.324;8.694;2023-12-04T11:13:32;99350.03;;;-1.78;81.09
38716;BME280;24833;49.324;8.694;2023-12-04T11:18:37;99334.41;;;-1.89;81.63
38716;BME280;24833;49.324;8.694;2023-12-04T11:21:08;99341.78;;;-1.95;82.10
38716;BME280;24833;49.324;8.694;2023-12-04T11:23:37;99309.16;;;-2.00;82.50
38716;BME280;24833;49.324;8.694;2023-12-04T11:26:05;99331.41;;;-2.06;83.02
38716;BME280;24833;49.324;8.694;2023-12-04T11:28:34;99324.75;;;-2.10;83.53
38716;BME280;24833;49.324;8.694;2023-12-04T11:31:05;99318.16;;;-2.14;83.89
38716;BME280;24833;49.324;8.694;2023-12-04T11:33:37;99301.03;;;-2.18;84.39
38716;BME280;24833;49.324;8.694;2023-12-04T11:36:10;99294.16;;;-2.19;85.06
38716;BME280;24833;49.324;8.694;2023-12-04T11:38:48;99289.16;;;-2.22;85.54
38716;BME280;24833;49.324;8.694;2023-12-04T11:41:23;99276.22;;;-2.24;86.24
38716;BME280;24833;49.324;8.694;2023-12-04T11:43:57;99248.41;;;-2.25;86.88
38716;BME280;24833;49.324;8.694;2023-12-04T11:46:29;99260.81;;;-2.27;87.45
38716;BME280;24833;49.324;8.694;2023-12-04T11:49:29;99242.59;;;-2.28;87.99
38716;BME280;24833;49.324;8.694;2023-12-04T11:52:03;99251.53;;;-2.31;88.65
38716;BME280;24833;49.324;8.694;2023-12-04T11:55:01;99248.09;;;-2.31;89.04
38716;BME280;24833;49.324;8.694;2023-12-04T11:57:40;99249.06;;;-2.32;89.67
38716;BME280;24833;49.324;8.694;2023-12-04T12:00:21;99238.59;;;-2.32;90.16
38716;BME280;24833;49.324;8.694;2023-12-04T12:05:40;99232.56;;;-2.33;91.05
38716;BME280;24833;49.324;8.694;2023-12-04T12:08:08;99228.16;;;-2.32;91.50
38716;BME280;24833;49.324;8.694;2023-12-04T12:10:36;99220.31;;;-2.32;92.01
38716;BME280;24833;49.324;8.694;2023-12-04T12:13:03;99215.09;;;-2.32;92.42
38716;BME280;24833;49.324;8.694;2023-12-04T12:15:32;99209.84;;;-2.32;92.84
38716;BME280;24833;49.324;8.694;2023-12-04T12:18:00;99197.75;;;-2.33;93.27
38716;BME280;24833;49.324;8.694;2023-12-04T12:20:27;99190.84;;;-2.34;93.53
38716;BME280;24833;49.324;8.694;2023-12-04T12:22:54;99185.59;;;-2.34;94.00
38716;BME280;24833;49.324;8.694;2023-12-04T12:25:23;99192.53;;;-2.33;94.35
38716;BME280;24833;49.324;8.694;2023-12-04T12:27:51;99180.38;;;-2.34;94.67
38716;BME280;24833;49.324;8.694;2023-12-04T12:30:19;99174.31;;;-2.35;95.28
38716;BME280;24833;49.324;8.694;2023-12-04T12:32:46;99175.16;;;-2.34;95.40
38716;BME280;24833;49.324;8.694;2023-12-04T12:35:13;99171.72;;;-2.35;95.96
38716;BME280;24833;49.324;8.694;2023-12-04T12:37:41;99149.97;;;-2.35;96.38
38716;BME280;24833;49.324;8.694;2023-12-04T12:40:10;99145.47;;;-2.33;96.55
38716;BME280;24833;49.324;8.694;2023-12-04T12:42:37;99147.13;;;-2.32;96.98
38716;BME280;24833;49.324;8.694;2023-12-04T12:45:11;99139.97;;;-2.30;97.33
38716;BME280;24833;49.324;8.694;2023-12-04T12:47:42;99131.16;;;-2.29;97.57
38716;BME280;24833;49.324;8.694;2023-12-04T12:50:09;99117.13;;;-2.28;97.93
38716;BME280;24833;49.324;8.694;2023-12-04T12:52:43;99117.72;;;-2.25;98.38
38716;BME280;24833;49.324;8.694;2023-12-04T12:55:10;99111.53;;;-2.24;98.66
38716;BME280;24833;49.324;8.694;2023-12-04T12:57:37;99106.97;;;-2.22;98.63
38716;BME280;24833;49.324;8.694;2023-12-04T13:00:06;99114.72;;;-2.20;98.99
38716;BME280;24833;49.324;8.694;2023-12-04T13:02:36;99085.81;;;-2.18;99.39
38716;BME280;24833;49.324;8.694;2023-12-04T13:05:05;99096.97;;;-2.16;99.37
38716;BME280;24833;49.324;8.694;2023-12-04T13:07:33;99081.03;;;-2.13;99.67
38716;BME280;24833;49.324;8.694;2023-12-04T13:10:00;99079.94;;;-2.11;99.97
38716;BME280;24833;49.324;8.694;2023-12-04T13:12:28;99075.38;;;-2.09;100.00